sensor_id;sensor_type;location;lat;lon;timestamp;P1;durP1;ratioP1;P2;durP2;ratioP2
58222;SDS011;44020;50.890;15.796;2024-01-16T00:00:24;2.30;;;1.40;;
58222;SDS011;44020;50.890;15.796;2024-01-16T00:03:10;2.00;;;1.30;;
58222;SDS011;44020;50.890;15.796;2024-01-16T00:07:08;2.50;;;1.60;;
58222;SDS011;44020;50.890;15.796;2024-01-16T00:09:51;1.90;;;1.30;;
58222;SDS011;44020;50.890;15.796;2024-01-16T00:12:21;2.30;;;1.20;;
58222;SDS011;44020;50.890;15.796;2024-01-16T00:15:15;2.40;;;1.50;;
58222;SDS011;44020;50.890;15.796;2024-01-16T00:18:22;3.00;;;1.40;;
58222;SDS011;44020;50.890;15.796;2024-01-16T00:27:54;2.80;;;1.50;;
58222;SDS011;44020;50.890;15.796;2024-01-16T00:31:00;2.40;;;1.10;;
58222;SDS011;44020;50.890;15.796;2024-01-16T00:33:41;3.30;;;1.30;;
58222;SDS011;44020;50.890;15.796;2024-01-16T00:36:14;2.60;;;1.40;;
58222;SDS011;44020;50.890;15.796;2024-01-16T00:47:59;4.90;;;1.10;;
58222;SDS011;44020;50.890;15.796;2024-01-16T00:54:04;4.80;;;2.30;;
58222;SDS011;44020;50.890;15.796;2024-01-16T00:56:54;6.30;;;2.30;;
58222;SDS011;44020;50.890;15.796;2024-01-16T01:02:20;6.10;;;2.00;;
58222;SDS011;44020;50.890;15.796;2024-01-16T01:08:15;7.20;;;2.00;;
58222;SDS011;44020;50.890;15.796;2024-01-16T01:11:06;4.90;;;1.00;;
58222;SDS011;44020;50.890;15.796;2024-01-16T01:13:45;5.30;;;1.20;;
58222;SDS011;44020;50.890;15.796;2024-01-16T01:16:49;4.60;;;1.10;;
58222;SDS011;44020;50.890;15.796;2024-01-16T01:23:02;4.70;;;1.20;;
58222;SDS011;44020;50.890;15.796;2024-01-16T01:26:00;4.90;;;1.60;;
58222;SDS011;44020;50.890;15.796;2024-01-16T01:32:19;2.80;;;0.90;;
58222;SDS011;44020;50.890;15.796;2024-01-16T01:34:56;2.20;;;0.80;;
58222;SDS011;44020;50.890;15.796;2024-01-16T01:37:27;2.80;;;0.90;;
58222;SDS011;44020;50.890;15.796;2024-01-16T01:40:29;1.80;;;1.00;;
58222;SDS011;44020;50.890;15.796;2024-01-16T01:46:35;4.50;;;1.30;;
58222;SDS011;44020;50.890;15.796;2024-01-16T01:49:06;2.40;;;1.20;;
58222;SDS011;44020;50.890;15.796;2024-01-16T01:51:34;4.00;;;1.30;;
58222;SDS011;44020;50.890;15.796;2024-01-16T01:54:04;4.20;;;1.50;;
58222;SDS011;44020;50.890;15.796;2024-01-16T01:56:35;12.40;;;3.90;;
58222;SDS011;44020;50.890;15.796;2024-01-16T01:59:03;5.50;;;2.20;;
58222;SDS011;44020;50.890;15.796;2024-01-16T02:02:11;5.30;;;2.10;;
58222;SDS011;44020;50.890;15.796;2024-01-16T02:04:39;3.50;;;1.70;;
58222;SDS011;44020;50.890;15.796;2024-01-16T02:10:37;4.60;;;1.60;;
58222;SDS011;44020;50.890;15.796;2024-01-16T02:16:21;2.90;;;1.30;;
58222;SDS011;44020;50.890;15.796;2024-01-16T02:19:19;4.20;;;1.30;;
58222;SDS011;44020;50.890;15.796;2024-01-16T02:21:53;2.70;;;1.50;;
58222;SDS011;44020;50.890;15.796;2024-01-16T02:24:49;5.10;;;2.00;;
58222;SDS011;44020;50.890;15.796;2024-01-16T02:27:28;8.60;;;3.30;;
58222;SDS011;44020;50.890;15.796;2024-01-16T02:30:12;4.30;;;1.80;;
58222;SDS011;44020;50.890;15.796;2024-01-16T02:33:09;8.00;;;2.40;;
58222;SDS011;44020;50.890;15.796;2024-01-16T02:35:39;4.10;;;1.70;;
58222;SDS011;44020;50.890;15.796;2024-01-16T02:38:13;3.30;;;1.40;;
58222;SDS011;44020;50.890;15.796;2024-01-16T02:40:59;6.20;;;2.10;;
58222;SDS011;44020;50.890;15.796;2024-01-16T02:43:27;4.80;;;1.70;;
58222;SDS011;44020;50.890;15.796;2024-01-16T02:46:05;3.50;;;1.40;;
58222;SDS011;44020;50.890;15.796;2024-01-16T02:48:43;4.20;;;1.30;;
58222;SDS011;44020;50.890;15.796;2024-01-16T02:51:25;4.40;;;2.00;;
58222;SDS011;44020;50.890;15.796;2024-01-16T02:54:02;4.30;;;1.80;;
58222;SDS011;44020;50.890;15.796;2024-01-16T02:59:43;2.10;;;1.30;;
58222;SDS011;44020;50.890;15.796;2024-01-16T03:03:12;1.90;;;1.30;;
58222;SDS011;44020;50.890;15.796;2024-01-16T03:06:31;4.10;;;1.40;;
58222;SDS011;44020;50.890;15.796;2024-01-16T03:14:48;14.80;;;3.80;;
58222;SDS011;44020;50.890;15.796;2024-01-16T03:17:24;2.80;;;1.10;;
58222;SDS011;44020;50.890;15.796;2024-01-16T03:23:09;1.60;;;1.10;;
58222;SDS011;44020;50.890;15.796;2024-01-16T03:29:34;4.30;;;1.40;;
58222;SDS011;44020;50.890;15.796;2024-01-16T03:32:12;3.20;;;1.50;;
58222;SDS011;44020;50.890;15.796;2024-01-16T03:34:43;3.50;;;1.10;;
58222;SDS011;44020;50.890;15.796;2024-01-16T03:37:10;5.90;;;1.30;;
58222;SDS011;44020;50.890;15.796;2024-01-16T03:42:51;3.10;;;1.20;;
58222;SDS011;44020;50.890;15.796;2024-01-16T03:45:47;3.50;;;1.20;;
58222;SDS011;44020;50.890;15.796;2024-01-16T03:51:13;3.10;;;1.10;;
58222;SDS011;44020;50.890;15.796;2024-01-16T03:54:07;3.00;;;1.20;;
58222;SDS011;44020;50.890;15.796;2024-01-16T03:57:14;3.30;;;1.10;;
58222;SDS011;44020;50.890;15.796;2024-01-16T04:03:24;1.80;;;1.10;;
58222;SDS011;44020;50.890;15.796;2024-01-16T04:06:15;6.80;;;1.20;;
58222;SDS011;44020;50.890;15.796;2024-01-16T04:15:17;3.20;;;1.20;;
58222;SDS011;44020;50.890;15.796;2024-01-16T04:17:53;3.90;;;1.20;;
58222;SDS011;44020;50.890;15.796;2024-01-16T04:20:38;3.80;;;1.30;;
58222;SDS011;44020;50.890;15.796;2024-01-16T04:23:05;2.30;;;1.40;;
58222;SDS011;44020;50.890;15.796;2024-01-16T04:26:00;4.50;;;1.70;;
58222;SDS011;44020;50.890;15.796;2024-01-16T04:28:30;1.60;;;1.10;;
58222;SDS011;44020;50.890;15.796;2024-01-16T04:30:57;3.80;;;1.50;;
58222;SDS011;44020;50.890;15.796;2024-01-16T04:33:25;3.20;;;1.60;;
58222;SDS011;44020;50.890;15.796;2024-01-16T04:39:34;2.20;;;1.00;;
58222;SDS011;44020;50.890;15.796;2024-01-16T04:42:17;4.80;;;1.40;;
58222;SDS011;44020;50.890;15.796;2024-01-16T04:45:09;5.20;;;2.20;;
58222;SDS011;44020;50.890;15.796;2024-01-16T04:47:45;4.40;;;1.70;;
58222;SDS011;44020;50.890;15.796;2024-01-16T04:50:22;3.00;;;1.30;;
58222;SDS011;44020;50.890;15.796;2024-01-16T04:52:50;3.30;;;1.30;;
58222;SDS011;44020;50.890;15.796;2024-01-16T04:55:28;4.10;;;1.50;;
58222;SDS011;44020;50.890;15.796;2024-01-16T05:04:25;4.40;;;2.30;;
58222;SDS011;44020;50.890;15.796;2024-01-16T05:06:52;3.30;;;1.30;;
58222;SDS011;44020;50.890;15.796;2024-01-16T05:09:25;4.10;;;1.80;;
58222;SDS011;44020;50.890;15.796;2024-01-16T05:12:01;4.80;;;1.70;;
58222;SDS011;44020;50.890;15.796;2024-01-16T05:14:32;4.70;;;2.00;;
58222;SDS011;44020;50.890;15.796;2024-01-16T05:17:02;3.70;;;1.70;;
58222;SDS011;44020;50.890;15.796;2024-01-16T05:22:32;4.20;;;2.10;;
58222;SDS011;44020;50.890;15.796;2024-01-16T05:25:29;5.50;;;2.30;;
58222;SDS011;44020;50.890;15.796;2024-01-16T05:28:08;4.30;;;1.80;;
58222;SDS011;44020;50.890;15.796;2024-01-16T05:36:53;7.40;;;2.60;;
58222;SDS011;44020;50.890;15.796;2024-01-16T05:42:49;5.60;;;2.10;;
58222;SDS011;44020;50.890;15.796;2024-01-16T05:45:17;6.00;;;2.70;;
58222;SDS011;44020;50.890;15.796;2024-01-16T05:47:54;9.80;;;4.30;;
58222;SDS011;44020;50.890;15.796;2024-01-16T05:50:22;5.80;;;2.70;;
58222;SDS011;44020;50.890;15.796;2024-01-16T05:52:50;4.90;;;2.20;;
58222;SDS011;44020;50.890;15.796;2024-01-16T05:55:26;10.90;;;3.70;;
58222;SDS011;44020;50.890;15.796;2024-01-16T05:57:56;5.00;;;2.10;;
58222;SDS011;44020;50.890;15.796;2024-01-16T06:00:32;7.10;;;2.40;;
58222;SDS011;44020;50.890;15.796;2024-01-16T06:09:28;2.40;;;1.40;;
58222;SDS011;44020;50.890;15.796;2024-01-16T06:12:35;6.00;;;2.10;;
58222;SDS011;44020;50.890;15.796;2024-01-16T06:18:10;6.00;;;2.20;;
58222;SDS011;44020;50.890;15.796;2024-01-16T06:24:31;5.60;;;1.70;;
58222;SDS011;44020;50.890;15.796;2024-01-16T06:27:12;5.50;;;2.00;;
58222;SDS011;44020;50.890;15.796;2024-01-16T06:32:57;8.00;;;2.60;;
58222;SDS011;44020;50.890;15.796;2024-01-16T06:35:36;6.10;;;1.80;;
58222;SDS011;44020;50.890;15.796;2024-01-16T06:38:12;6.10;;;2.20;;
58222;SDS011;44020;50.890;15.796;2024-01-16T06:40:42;5.90;;;2.10;;
58222;SDS011;44020;50.890;15.796;2024-01-16T06:43:36;5.90;;;2.10;;
58222;SDS011;44020;50.890;15.796;2024-01-16T06:46:12;3.20;;;2.10;;
58222;SDS011;44020;50.890;15.796;2024-01-16T06:48:47;4.90;;;2.30;;
58222;SDS011;44020;50.890;15.796;2024-01-16T06:54:20;4.60;;;1.90;;
58222;SDS011;44020;50.890;15.796;2024-01-16T06:57:04;6.00;;;1.80;;
58222;SDS011;44020;50.890;15.796;2024-01-16T06:59:34;5.10;;;1.70;;
58222;SDS011;44020;50.890;15.796;2024-01-16T07:02:01;6.40;;;2.20;;
58222;SDS011;44020;50.890;15.796;2024-01-16T07:04:53;2.70;;;1.30;;
58222;SDS011;44020;50.890;15.796;2024-01-16T07:10:39;5.00;;;2.10;;
58222;SDS011;44020;50.890;15.796;2024-01-16T07:13:10;2.90;;;1.60;;
58222;SDS011;44020;50.890;15.796;2024-01-16T07:15:53;4.70;;;1.70;;
58222;SDS011;44020;50.890;15.796;2024-01-16T07:18:28;5.70;;;2.60;;
58222;SDS011;44020;50.890;15.796;2024-01-16T07:21:19;4.70;;;2.10;;
58222;SDS011;44020;50.890;15.796;2024-01-16T07:24:19;7.00;;;2.20;;
58222;SDS011;44020;50.890;15.796;2024-01-16T07:26:49;5.50;;;2.00;;
58222;SDS011;44020;50.890;15.796;2024-01-16T07:29:19;4.70;;;1.30;;
58222;SDS011;44020;50.890;15.796;2024-01-16T07:32:18;2.60;;;0.90;;
58222;SDS011;44020;50.890;15.796;2024-01-16T07:34:46;4.40;;;2.40;;
58222;SDS011;44020;50.890;15.796;2024-01-16T07:37:16;5.70;;;2.00;;
58222;SDS011;44020;50.890;15.796;2024-01-16T07:39:44;8.40;;;3.90;;
58222;SDS011;44020;50.890;15.796;2024-01-16T07:42:12;5.30;;;2.80;;
58222;SDS011;44020;50.890;15.796;2024-01-16T07:47:48;3.10;;;1.20;;
58222;SDS011;44020;50.890;15.796;2024-01-16T07:50:15;3.70;;;1.50;;
58222;SDS011;44020;50.890;15.796;2024-01-16T07:52:45;6.90;;;3.20;;
58222;SDS011;44020;50.890;15.796;2024-01-16T07:55:12;4.70;;;1.70;;
58222;SDS011;44020;50.890;15.796;2024-01-16T07:57:40;5.60;;;1.70;;
58222;SDS011;44020;50.890;15.796;2024-01-16T08:06:02;4.70;;;2.00;;
58222;SDS011;44020;50.890;15.796;2024-01-16T08:08:32;3.80;;;2.10;;
58222;SDS011;44020;50.890;15.796;2024-01-16T08:11:09;5.00;;;2.10;;
58222;SDS011;44020;50.890;15.796;2024-01-16T08:13:39;5.70;;;2.30;;
58222;SDS011;44020;50.890;15.796;2024-01-16T08:16:16;6.80;;;3.60;;
58222;SDS011;44020;50.890;15.796;2024-01-16T08:18:43;6.10;;;3.10;;
58222;SDS011;44020;50.890;15.796;2024-01-16T08:21:13;4.30;;;2.10;;
58222;SDS011;44020;50.890;15.796;2024-01-16T08:23:45;6.60;;;2.80;;
58222;SDS011;44020;50.890;15.796;2024-01-16T08:26:16;7.20;;;2.60;;
58222;SDS011;44020;50.890;15.796;2024-01-16T08:28:43;5.50;;;2.40;;
58222;SDS011;44020;50.890;15.796;2024-01-16T08:31:15;5.80;;;2.60;;
58222;SDS011;44020;50.890;15.796;2024-01-16T08:33:44;4.40;;;2.30;;
58222;SDS011;44020;50.890;15.796;2024-01-16T08:39:27;8.60;;;3.80;;
58222;SDS011;44020;50.890;15.796;2024-01-16T08:42:01;17.10;;;7.00;;
58222;SDS011;44020;50.890;15.796;2024-01-16T08:44:38;9.30;;;4.70;;
58222;SDS011;44020;50.890;15.796;2024-01-16T08:47:09;6.10;;;4.00;;
58222;SDS011;44020;50.890;15.796;2024-01-16T08:49:36;7.60;;;4.10;;
58222;SDS011;44020;50.890;15.796;2024-01-16T08:52:07;9.50;;;4.10;;
58222;SDS011;44020;50.890;15.796;2024-01-16T08:54:54;9.40;;;4.20;;
58222;SDS011;44020;50.890;15.796;2024-01-16T09:00:02;7.10;;;3.10;;
58222;SDS011;44020;50.890;15.796;2024-01-16T09:02:30;6.00;;;2.90;;
58222;SDS011;44020;50.890;15.796;2024-01-16T09:05:05;6.70;;;2.90;;
58222;SDS011;44020;50.890;15.796;2024-01-16T09:07:42;6.20;;;2.40;;
58222;SDS011;44020;50.890;15.796;2024-01-16T09:10:12;6.40;;;2.80;;
58222;SDS011;44020;50.890;15.796;2024-01-16T09:18:54;6.70;;;3.60;;
58222;SDS011;44020;50.890;15.796;2024-01-16T09:24:24;6.90;;;2.60;;
58222;SDS011;44020;50.890;15.796;2024-01-16T09:27:12;3.80;;;2.10;;
58222;SDS011;44020;50.890;15.796;2024-01-16T09:29:51;5.60;;;2.00;;
58222;SDS011;44020;50.890;15.796;2024-01-16T09:32:19;4.40;;;2.10;;
58222;SDS011;44020;50.890;15.796;2024-01-16T09:34:58;3.80;;;1.90;;
58222;SDS011;44020;50.890;15.796;2024-01-16T09:37:27;5.10;;;2.10;;
58222;SDS011;44020;50.890;15.796;2024-01-16T09:39:55;5.60;;;2.00;;
58222;SDS011;44020;50.890;15.796;2024-01-16T09:42:32;4.00;;;2.30;;
58222;SDS011;44020;50.890;15.796;2024-01-16T09:51:08;7.70;;;2.90;;
58222;SDS011;44020;50.890;15.796;2024-01-16T09:53:52;9.30;;;2.50;;
58222;SDS011;44020;50.890;15.796;2024-01-16T09:56:27;8.40;;;3.20;;
58222;SDS011;44020;50.890;15.796;2024-01-16T09:59:02;8.00;;;3.10;;
58222;SDS011;44020;50.890;15.796;2024-01-16T10:01:32;6.80;;;2.40;;
58222;SDS011;44020;50.890;15.796;2024-01-16T10:04:01;6.40;;;2.50;;
58222;SDS011;44020;50.890;15.796;2024-01-16T10:06:44;2.90;;;1.20;;
58222;SDS011;44020;50.890;15.796;2024-01-16T10:09:13;3.80;;;1.80;;
58222;SDS011;44020;50.890;15.796;2024-01-16T10:11:43;3.40;;;1.30;;
58222;SDS011;44020;50.890;15.796;2024-01-16T10:14:13;3.30;;;1.60;;
58222;SDS011;44020;50.890;15.796;2024-01-16T10:16:57;7.00;;;3.10;;
58222;SDS011;44020;50.890;15.796;2024-01-16T10:23:10;1.90;;;0.60;;
58222;SDS011;44020;50.890;15.796;2024-01-16T10:25:58;1.80;;;0.50;;
58222;SDS011;44020;50.890;15.796;2024-01-16T10:29:03;1.70;;;0.80;;
58222;SDS011;44020;50.890;15.796;2024-01-16T10:31:34;2.10;;;0.80;;
58222;SDS011;44020;50.890;15.796;2024-01-16T10:36:59;3.00;;;1.10;;
58222;SDS011;44020;50.890;15.796;2024-01-16T10:39:55;2.80;;;1.10;;
58222;SDS011;44020;50.890;15.796;2024-01-16T10:42:31;3.40;;;1.40;;
58222;SDS011;44020;50.890;15.796;2024-01-16T10:44:58;4.10;;;1.60;;
58222;SDS011;44020;50.890;15.796;2024-01-16T10:47:29;4.70;;;1.80;;
58222;SDS011;44020;50.890;15.796;2024-01-16T10:50:05;2.90;;;1.40;;
58222;SDS011;44020;50.890;15.796;2024-01-16T10:52:34;2.40;;;1.50;;
58222;SDS011;44020;50.890;15.796;2024-01-16T10:55:22;3.80;;;2.20;;
58222;SDS011;44020;50.890;15.796;2024-01-16T10:57:50;7.00;;;3.30;;
58222;SDS011;44020;50.890;15.796;2024-01-16T11:00:27;8.50;;;3.40;;
58222;SDS011;44020;50.890;15.796;2024-01-16T11:03:04;11.30;;;4.60;;
58222;SDS011;44020;50.890;15.796;2024-01-16T11:05:34;10.20;;;4.80;;
58222;SDS011;44020;50.890;15.796;2024-01-16T11:08:06;6.20;;;3.10;;
58222;SDS011;44020;50.890;15.796;2024-01-16T11:10:40;7.20;;;2.80;;
58222;SDS011;44020;50.890;15.796;2024-01-16T11:13:08;11.20;;;4.70;;
58222;SDS011;44020;50.890;15.796;2024-01-16T11:15:39;10.70;;;4.40;;
58222;SDS011;44020;50.890;15.796;2024-01-16T11:18:16;13.80;;;5.50;;
58222;SDS011;44020;50.890;15.796;2024-01-16T11:21:07;13.60;;;5.50;;
58222;SDS011;44020;50.890;15.796;2024-01-16T11:23:37;10.10;;;6.30;;
58222;SDS011;44020;50.890;15.796;2024-01-16T11:29:00;10.00;;;4.60;;
58222;SDS011;44020;50.890;15.796;2024-01-16T11:31:50;8.50;;;3.80;;
58222;SDS011;44020;50.890;15.796;2024-01-16T11:37:31;6.70;;;3.00;;
58222;SDS011;44020;50.890;15.796;2024-01-16T11:42:48;7.00;;;3.70;;
58222;SDS011;44020;50.890;15.796;2024-01-16T11:50:46;13.00;;;4.70;;
58222;SDS011;44020;50.890;15.796;2024-01-16T11:53:37;13.00;;;5.70;;
58222;SDS011;44020;50.890;15.796;2024-01-16T11:56:55;17.00;;;5.40;;
58222;SDS011;44020;50.890;15.796;2024-01-16T12:00:08;9.50;;;3.90;;
58222;SDS011;44020;50.890;15.796;2024-01-16T12:02:55;12.60;;;5.50;;
58222;SDS011;44020;50.890;15.796;2024-01-16T12:05:26;14.90;;;6.50;;
58222;SDS011;44020;50.890;15.796;2024-01-16T12:07:58;10.70;;;5.10;;
58222;SDS011;44020;50.890;15.796;2024-01-16T12:10:25;10.40;;;4.50;;
58222;SDS011;44020;50.890;15.796;2024-01-16T12:13:12;17.60;;;7.70;;
58222;SDS011;44020;50.890;15.796;2024-01-16T12:15:42;13.20;;;6.50;;
58222;SDS011;44020;50.890;15.796;2024-01-16T12:18:10;11.10;;;5.00;;
58222;SDS011;44020;50.890;15.796;2024-01-16T12:20:49;10.70;;;4.70;;
58222;SDS011;44020;50.890;15.796;2024-01-16T12:23:19;21.40;;;6.90;;
58222;SDS011;44020;50.890;15.796;2024-01-16T12:25:52;19.50;;;7.30;;
58222;SDS011;44020;50.890;15.796;2024-01-16T12:28:32;16.20;;;6.70;;
58222;SDS011;44020;50.890;15.796;2024-01-16T12:30:59;25.80;;;8.50;;
58222;SDS011;44020;50.890;15.796;2024-01-16T12:33:30;119.80;;;26.60;;
58222;SDS011;44020;50.890;15.796;2024-01-16T12:36:00;46.70;;;14.10;;
58222;SDS011;44020;50.890;15.796;2024-01-16T12:38:29;27.70;;;8.90;;
58222;SDS011;44020;50.890;15.796;2024-01-16T12:40:59;17.00;;;5.10;;
58222;SDS011;44020;50.890;15.796;2024-01-16T12:43:31;20.90;;;6.70;;
58222;SDS011;44020;50.890;15.796;2024-01-16T12:45:59;12.80;;;4.20;;
58222;SDS011;44020;50.890;15.796;2024-01-16T12:48:27;15.80;;;4.60;;
58222;SDS011;44020;50.890;15.796;2024-01-16T12:51:03;10.80;;;4.20;;
58222;SDS011;44020;50.890;15.796;2024-01-16T12:56:17;10.00;;;2.80;;
58222;SDS011;44020;50.890;15.796;2024-01-16T12:58:56;11.60;;;3.70;;
58222;SDS011;44020;50.890;15.796;2024-01-16T13:01:56;14.30;;;5.60;;
58222;SDS011;44020;50.890;15.796;2024-01-16T13:04:44;11.40;;;4.10;;
58222;SDS011;44020;50.890;15.796;2024-01-16T13:09:49;14.30;;;3.80;;
58222;SDS011;44020;50.890;15.796;2024-01-16T13:12:20;7.20;;;2.80;;
58222;SDS011;44020;50.890;15.796;2024-01-16T13:14:48;16.90;;;3.80;;
58222;SDS011;44020;50.890;15.796;2024-01-16T13:17:25;37.20;;;12.50;;
58222;SDS011;44020;50.890;15.796;2024-01-16T13:20:31;34.70;;;12.60;;
58222;SDS011;44020;50.890;15.796;2024-01-16T13:23:07;17.50;;;6.50;;
58222;SDS011;44020;50.890;15.796;2024-01-16T13:25:46;26.90;;;8.40;;
58222;SDS011;44020;50.890;15.796;2024-01-16T13:28:17;23.00;;;6.60;;
58222;SDS011;44020;50.890;15.796;2024-01-16T13:33:43;20.90;;;4.60;;
58222;SDS011;44020;50.890;15.796;2024-01-16T13:36:17;15.00;;;3.50;;
58222;SDS011;44020;50.890;15.796;2024-01-16T13:39:15;14.70;;;4.20;;
58222;SDS011;44020;50.890;15.796;2024-01-16T13:44:47;22.00;;;7.20;;
58222;SDS011;44020;50.890;15.796;2024-01-16T13:47:18;23.70;;;7.90;;
58222;SDS011;44020;50.890;15.796;2024-01-16T13:49:48;16.00;;;5.30;;
58222;SDS011;44020;50.890;15.796;2024-01-16T13:52:23;9.40;;;3.30;;
58222;SDS011;44020;50.890;15.796;2024-01-16T13:55:13;8.00;;;3.50;;
58222;SDS011;44020;50.890;15.796;2024-01-16T13:57:48;14.40;;;6.10;;
58222;SDS011;44020;50.890;15.796;2024-01-16T14:00:15;14.90;;;6.00;;
58222;SDS011;44020;50.890;15.796;2024-01-16T14:02:44;15.60;;;6.40;;
58222;SDS011;44020;50.890;15.796;2024-01-16T14:05:23;13.70;;;6.30;;
58222;SDS011;44020;50.890;15.796;2024-01-16T14:10:43;21.80;;;8.00;;
58222;SDS011;44020;50.890;15.796;2024-01-16T14:13:10;16.40;;;8.00;;
58222;SDS011;44020;50.890;15.796;2024-01-16T14:18:37;12.60;;;6.10;;
58222;SDS011;44020;50.890;15.796;2024-01-16T14:21:36;12.20;;;4.50;;
58222;SDS011;44020;50.890;15.796;2024-01-16T14:26:51;15.30;;;4.90;;
58222;SDS011;44020;50.890;15.796;2024-01-16T14:29:19;12.30;;;5.20;;
58222;SDS011;44020;50.890;15.796;2024-01-16T14:31:46;10.50;;;4.30;;
58222;SDS011;44020;50.890;15.796;2024-01-16T14:34:15;12.80;;;4.10;;
58222;SDS011;44020;50.890;15.796;2024-01-16T14:36:52;16.30;;;4.70;;
58222;SDS011;44020;50.890;15.796;2024-01-16T14:39:20;11.00;;;4.30;;
58222;SDS011;44020;50.890;15.796;2024-01-16T14:42:05;10.90;;;4.10;;
58222;SDS011;44020;50.890;15.796;2024-01-16T14:44:35;37.00;;;9.90;;
58222;SDS011;44020;50.890;15.796;2024-01-16T14:47:03;37.30;;;12.20;;
58222;SDS011;44020;50.890;15.796;2024-01-16T14:49:32;41.80;;;13.10;;
58222;SDS011;44020;50.890;15.796;2024-01-16T14:52:22;44.10;;;15.20;;
58222;SDS011;44020;50.890;15.796;2024-01-16T14:54:49;88.00;;;23.30;;
58222;SDS011;44020;50.890;15.796;2024-01-16T14:57:22;97.30;;;27.20;;
58222;SDS011;44020;50.890;15.796;2024-01-16T14:59:49;100.70;;;30.10;;
58222;SDS011;44020;50.890;15.796;2024-01-16T15:02:17;127.60;;;38.10;;
58222;SDS011;44020;50.890;15.796;2024-01-16T15:04:49;123.40;;;37.20;;
58222;SDS011;44020;50.890;15.796;2024-01-16T15:07:17;147.40;;;40.80;;
58222;SDS011;44020;50.890;15.796;2024-01-16T15:09:47;159.40;;;44.20;;
58222;SDS011;44020;50.890;15.796;2024-01-16T15:12:15;126.50;;;37.60;;
58222;SDS011;44020;50.890;15.796;2024-01-16T15:14:48;74.90;;;25.50;;
58222;SDS011;44020;50.890;15.796;2024-01-16T15:17:45;57.90;;;22.30;;
58222;SDS011;44020;50.890;15.796;2024-01-16T15:20:18;64.70;;;22.10;;
58222;SDS011;44020;50.890;15.796;2024-01-16T15:22:48;74.10;;;25.30;;
58222;SDS011;44020;50.890;15.796;2024-01-16T15:25:19;80.40;;;27.60;;
58222;SDS011;44020;50.890;15.796;2024-01-16T15:27:51;64.90;;;22.90;;
58222;SDS011;44020;50.890;15.796;2024-01-16T15:30:22;45.40;;;17.60;;
58222;SDS011;44020;50.890;15.796;2024-01-16T15:32:54;41.00;;;16.30;;
58222;SDS011;44020;50.890;15.796;2024-01-16T15:35:21;46.50;;;19.50;;
58222;SDS011;44020;50.890;15.796;2024-01-16T15:37:51;52.20;;;21.20;;
58222;SDS011;44020;50.890;15.796;2024-01-16T15:40:30;39.00;;;16.40;;
58222;SDS011;44020;50.890;15.796;2024-01-16T15:43:00;29.40;;;11.60;;
58222;SDS011;44020;50.890;15.796;2024-01-16T15:45:29;20.80;;;9.20;;
58222;SDS011;44020;50.890;15.796;2024-01-16T15:48:05;20.60;;;9.00;;
58222;SDS011;44020;50.890;15.796;2024-01-16T15:50:43;18.10;;;7.80;;
58222;SDS011;44020;50.890;15.796;2024-01-16T15:53:12;26.10;;;10.70;;
58222;SDS011;44020;50.890;15.796;2024-01-16T15:55:52;46.80;;;16.50;;
58222;SDS011;44020;50.890;15.796;2024-01-16T15:58:26;41.20;;;14.50;;
58222;SDS011;44020;50.890;15.796;2024-01-16T16:00:58;31.90;;;12.20;;
58222;SDS011;44020;50.890;15.796;2024-01-16T16:03:31;22.30;;;8.90;;
58222;SDS011;44020;50.890;15.796;2024-01-16T16:05:58;22.10;;;9.30;;
58222;SDS011;44020;50.890;15.796;2024-01-16T16:08:29;20.00;;;7.90;;
58222;SDS011;44020;50.890;15.796;2024-01-16T16:11:05;22.20;;;8.10;;
58222;SDS011;44020;50.890;15.796;2024-01-16T16:13:37;22.10;;;9.00;;
58222;SDS011;44020;50.890;15.796;2024-01-16T16:16:16;25.40;;;9.90;;
58222;SDS011;44020;50.890;15.796;2024-01-16T16:18:53;33.20;;;13.40;;
58222;SDS011;44020;50.890;15.796;2024-01-16T16:21:59;42.20;;;14.60;;
58222;SDS011;44020;50.890;15.796;2024-01-16T16:24:41;40.20;;;14.70;;
58222;SDS011;44020;50.890;15.796;2024-01-16T16:30:17;159.00;;;45.10;;
58222;SDS011;44020;50.890;15.796;2024-01-16T16:36:20;73.00;;;24.50;;
58222;SDS011;44020;50.890;15.796;2024-01-16T16:39:24;57.30;;;20.10;;
58222;SDS011;44020;50.890;15.796;2024-01-16T16:42:20;46.90;;;17.80;;
58222;SDS011;44020;50.890;15.796;2024-01-16T16:45:03;46.40;;;15.40;;
58222;SDS011;44020;50.890;15.796;2024-01-16T16:47:59;56.00;;;17.90;;
58222;SDS011;44020;50.890;15.796;2024-01-16T16:50:35;61.80;;;21.10;;
58222;SDS011;44020;50.890;15.796;2024-01-16T16:53:46;72.80;;;23.90;;
58222;SDS011;44020;50.890;15.796;2024-01-16T16:59:28;79.20;;;28.60;;
58222;SDS011;44020;50.890;15.796;2024-01-16T17:01:56;92.40;;;31.50;;
58222;SDS011;44020;50.890;15.796;2024-01-16T17:04:45;60.70;;;23.00;;
58222;SDS011;44020;50.890;15.796;2024-01-16T17:07:25;69.80;;;25.20;;
58222;SDS011;44020;50.890;15.796;2024-01-16T17:10:26;96.30;;;29.60;;
58222;SDS011;44020;50.890;15.796;2024-01-16T17:13:00;126.50;;;36.70;;
58222;SDS011;44020;50.890;15.796;2024-01-16T17:15:49;127.00;;;37.50;;
58222;SDS011;44020;50.890;15.796;2024-01-16T17:18:32;121.50;;;39.50;;
58222;SDS011;44020;50.890;15.796;2024-01-16T17:21:08;110.50;;;38.40;;
58222;SDS011;44020;50.890;15.796;2024-01-16T17:23:39;126.10;;;38.90;;
58222;SDS011;44020;50.890;15.796;2024-01-16T17:26:07;122.60;;;39.90;;
58222;SDS011;44020;50.890;15.796;2024-01-16T17:28:43;129.90;;;42.50;;
58222;SDS011;44020;50.890;15.796;2024-01-16T17:31:14;139.40;;;46.90;;
58222;SDS011;44020;50.890;15.796;2024-01-16T17:36:41;122.60;;;43.40;;
58222;SDS011;44020;50.890;15.796;2024-01-16T17:39:17;152.00;;;48.70;;
58222;SDS011;44020;50.890;15.796;2024-01-16T17:41:54;163.70;;;54.60;;
58222;SDS011;44020;50.890;15.796;2024-01-16T17:44:24;147.30;;;50.10;;
58222;SDS011;44020;50.890;15.796;2024-01-16T17:46:51;111.00;;;39.00;;
58222;SDS011;44020;50.890;15.796;2024-01-16T17:56:08;104.90;;;36.40;;
58222;SDS011;44020;50.890;15.796;2024-01-16T17:58:55;112.60;;;39.30;;
58222;SDS011;44020;50.890;15.796;2024-01-16T18:01:53;131.90;;;45.20;;
58222;SDS011;44020;50.890;15.796;2024-01-16T18:07:16;136.70;;;49.40;;
58222;SDS011;44020;50.890;15.796;2024-01-16T18:12:45;134.60;;;44.60;;
58222;SDS011;44020;50.890;15.796;2024-01-16T18:15:54;123.30;;;44.80;;
58222;SDS011;44020;50.890;15.796;2024-01-16T18:18:24;121.70;;;39.70;;
58222;SDS011;44020;50.890;15.796;2024-01-16T18:21:00;97.90;;;32.80;;
58222;SDS011;44020;50.890;15.796;2024-01-16T18:23:50;109.90;;;36.10;;
58222;SDS011;44020;50.890;15.796;2024-01-16T18:26:33;139.40;;;46.40;;
58222;SDS011;44020;50.890;15.796;2024-01-16T18:29:22;141.40;;;46.20;;
58222;SDS011;44020;50.890;15.796;2024-01-16T18:31:59;153.90;;;50.70;;
58222;SDS011;44020;50.890;15.796;2024-01-16T18:34:31;137.10;;;46.10;;
58222;SDS011;44020;50.890;15.796;2024-01-16T18:36:58;138.50;;;45.20;;
58222;SDS011;44020;50.890;15.796;2024-01-16T18:39:29;113.50;;;38.10;;
58222;SDS011;44020;50.890;15.796;2024-01-16T18:42:17;109.00;;;38.50;;
58222;SDS011;44020;50.890;15.796;2024-01-16T18:45:06;111.90;;;38.40;;
58222;SDS011;44020;50.890;15.796;2024-01-16T18:47:38;107.30;;;39.90;;
58222;SDS011;44020;50.890;15.796;2024-01-16T18:50:17;102.00;;;38.30;;
58222;SDS011;44020;50.890;15.796;2024-01-16T18:52:46;110.30;;;38.20;;
58222;SDS011;44020;50.890;15.796;2024-01-16T18:55:13;120.40;;;41.40;;
58222;SDS011;44020;50.890;15.796;2024-01-16T18:57:45;130.30;;;47.30;;